sensor_id;sensor_type;location;lat;lon;timestamp;pressure;altitude;pressure_sealevel;temperature;humidity
21863;BME280;11096;51.338;12.524;2022-08-25T00:00:46;100521.91;;;19.42;87.24
21863;BME280;11096;51.338;12.524;2022-08-25T00:03:12;100514.47;;;19.38;87.49
21863;BME280;11096;51.338;12.524;2022-08-25T00:05:38;100515.50;;;19.27;87.52
21863;BME280;11096;51.338;12.524;2022-08-25T00:08:05;100516.81;;;19.23;87.85
21863;BME280;11096;51.338;12.524;2022-08-25T00:10:32;100516.28;;;19.19;88.21
21863;BME280;11096;51.338;12.524;2022-08-25T00:12:59;100519.91;;;19.18;88.28
21863;BME280;11096;51.338;12.524;2022-08-25T00:15:24;100523.31;;;19.11;88.73
21863;BME280;11096;51.338;12.524;2022-08-25T00:17:50;100521.34;;;19.13;88.94
21863;BME280;11096;51.338;12.524;2022-08-25T00:20:16;100519.31;;;19.06;89.43
21863;BME280;11096;51.338;12.524;2022-08-25T00:22:41;100520.88;;;18.99;89.50
21863;BME280;11096;51.338;12.524;2022-08-25T00:25:07;100521.72;;;19.00;89.92
21863;BME280;11096;51.338;12.524;2022-08-25T00:27:34;100524.22;;;19.01;89.82
21863;BME280;11096;51.338;12.524;2022-08-25T00:29:59;100510.66;;;18.96;90.31
21863;BME280;11096;51.338;12.524;2022-08-25T00:32:25;100512.47;;;18.96;90.33
21863;BME280;11096;51.338;12.524;2022-08-25T00:34:51;100516.75;;;18.97;91.12
21863;BME280;11096;51.338;12.524;2022-08-25T00:37:17;100520.38;;;18.96;91.27
21863;BME280;11096;51.338;12.524;2022-08-25T00:39:43;100517.38;;;18.91;91.54
21863;BME280;11096;51.338;12.524;2022-08-25T00:42:08;100517.06;;;18.94;91.65
21863;BME280;11096;51.338;12.524;2022-08-25T00:44:40;100514.56;;;18.92;91.48
21863;BME280;11096;51.338;12.524;2022-08-25T00:47:08;100517.06;;;18.94;91.72
21863;BME280;11096;51.338;12.524;2022-08-25T00:49:55;100520.50;;;18.94;91.89
21863;BME280;11096;51.338;12.524;2022-08-25T00:52:33;100518.88;;;18.93;91.97
21863;BME280;11096;51.338;12.524;2022-08-25T00:55:29;100520.69;;;18.93;91.87
21863;BME280;11096;51.338;12.524;2022-08-25T00:57:57;100514.75;;;18.91;92.19
21863;BME280;11096;51.338;12.524;2022-08-25T01:02:49;100524.03;;;18.85;92.28
21863;BME280;11096;51.338;12.524;2022-08-25T01:05:16;100521.28;;;18.86;92.58
21863;BME280;11096;51.338;12.524;2022-08-25T01:07:42;100517.13;;;18.84;92.79
21863;BME280;11096;51.338;12.524;2022-08-25T01:10:09;100514.63;;;18.82;93.33
21863;BME280;11096;51.338;12.524;2022-08-25T01:12:36;100514.53;;;18.74;93.27
21863;BME280;11096;51.338;12.524;2022-08-25T01:15:05;100513.03;;;18.72;93.50
21863;BME280;11096;51.338;12.524;2022-08-25T01:17:45;100504.31;;;18.71;93.53
21863;BME280;11096;51.338;12.524;2022-08-25T01:20:11;100512.22;;;18.71;93.44
21863;BME280;11096;51.338;12.524;2022-08-25T01:22:37;100506.13;;;18.71;93.76
21863;BME280;11096;51.338;12.524;2022-08-25T01:25:19;100497.53;;;18.69;93.45
21863;BME280;11096;51.338;12.524;2022-08-25T01:27:47;100493.69;;;18.63;93.77
21863;BME280;11096;51.338;12.524;2022-08-25T01:30:12;100496.19;;;18.64;94.07
21863;BME280;11096;51.338;12.524;2022-08-25T01:32:38;100490.41;;;18.61;94.01
21863;BME280;11096;51.338;12.524;2022-08-25T01:35:04;100492.34;;;18.59;94.08
21863;BME280;11096;51.338;12.524;2022-08-25T01:37:33;100491.53;;;18.58;94.30
21863;BME280;11096;51.338;12.524;2022-08-25T01:39:59;100488.66;;;18.52;94.31
21863;BME280;11096;51.338;12.524;2022-08-25T01:45:27;100487.44;;;18.46;94.19
21863;BME280;11096;51.338;12.524;2022-08-25T01:47:53;100485.78;;;18.45;94.13
21863;BME280;11096;51.338;12.524;2022-08-25T01:50:19;100483.97;;;18.45;94.26
21863;BME280;11096;51.338;12.524;2022-08-25T01:52:50;100480.50;;;18.45;94.71
21863;BME280;11096;51.338;12.524;2022-08-25T01:55:18;100482.78;;;18.40;94.58
21863;BME280;11096;51.338;12.524;2022-08-25T01:57:44;100485.53;;;18.38;94.95
21863;BME280;11096;51.338;12.524;2022-08-25T02:00:10;100491.09;;;18.35;95.32
21863;BME280;11096;51.338;12.524;2022-08-25T02:02:38;100495.69;;;18.33;95.69
21863;BME280;11096;51.338;12.524;2022-08-25T02:05:05;100494.16;;;18.31;95.86
21863;BME280;11096;51.338;12.524;2022-08-25T02:07:31;100491.16;;;18.26;95.62
21863;BME280;11096;51.338;12.524;2022-08-25T02:09:57;100495.72;;;18.23;95.65
21863;BME280;11096;51.338;12.524;2022-08-25T02:12:23;100488.44;;;18.17;95.69
21863;BME280;11096;51.338;12.524;2022-08-25T02:14:49;100492.63;;;18.10;96.03
21863;BME280;11096;51.338;12.524;2022-08-25T02:17:15;100488.91;;;18.03;96.21
21863;BME280;11096;51.338;12.524;2022-08-25T02:19:41;100499.03;;;17.98;96.23
21863;BME280;11096;51.338;12.524;2022-08-25T02:22:07;100491.16;;;17.98;96.51
21863;BME280;11096;51.338;12.524;2022-08-25T02:24:32;100487.44;;;17.91;96.79
21863;BME280;11096;51.338;12.524;2022-08-25T02:26:59;100486.38;;;17.84;97.37
21863;BME280;11096;51.338;12.524;2022-08-25T02:29:24;100490.94;;;17.72;98.07
21863;BME280;11096;51.338;12.524;2022-08-25T02:31:50;100485.88;;;17.60;98.67
21863;BME280;11096;51.338;12.524;2022-08-25T02:34:15;100479.78;;;17.60;99.15
21863;BME280;11096;51.338;12.524;2022-08-25T02:36:41;100472.56;;;17.62;99.78
21863;BME280;11096;51.338;12.524;2022-08-25T02:39:09;100472.84;;;17.69;100.00
21863;BME280;11096;51.338;12.524;2022-08-25T02:41:35;100466.75;;;17.68;100.00
21863;BME280;11096;51.338;12.524;2022-08-25T02:44:02;100466.31;;;17.73;100.00
21863;BME280;11096;51.338;12.524;2022-08-25T02:46:28;100468.13;;;17.72;99.81
21863;BME280;11096;51.338;12.524;2022-08-25T02:48:53;100464.66;;;17.72;99.74
21863;BME280;11096;51.338;12.524;2022-08-25T02:51:21;100459.13;;;17.75;99.76
21863;BME280;11096;51.338;12.524;2022-08-25T02:53:48;100460.09;;;17.74;99.38
21863;BME280;11096;51.338;12.524;2022-08-25T02:56:14;100459.25;;;17.73;99.47
21863;BME280;11096;51.338;12.524;2022-08-25T02:58:40;100460.91;;;17.74;99.49
21863;BME280;11096;51.338;12.524;2022-08-25T03:01:07;100458.16;;;17.76;99.37
21863;BME280;11096;51.338;12.524;2022-08-25T03:03:37;100461.91;;;17.73;99.43
21863;BME280;11096;51.338;12.524;2022-08-25T03:06:05;100467.16;;;17.73;99.28
21863;BME280;11096;51.338;12.524;2022-08-25T03:08:31;100472.41;;;17.73;98.78
21863;BME280;11096;51.338;12.524;2022-08-25T03:10:56;100470.38;;;17.67;98.37
21863;BME280;11096;51.338;12.524;2022-08-25T03:13:21;100480.63;;;17.60;98.21
21863;BME280;11096;51.338;12.524;2022-08-25T03:15:47;100481.16;;;17.54;98.17
21863;BME280;11096;51.338;12.524;2022-08-25T03:18:13;100478.41;;;17.56;98.36
21863;BME280;11096;51.338;12.524;2022-08-25T03:20:40;100486.97;;;17.58;98.51
21863;BME280;11096;51.338;12.524;2022-08-25T03:23:05;100479.94;;;17.58;98.45
21863;BME280;11096;51.338;12.524;2022-08-25T03:25:31;100477.59;;;17.55;98.26
21863;BME280;11096;51.338;12.524;2022-08-25T03:28:15;100473.59;;;17.51;98.15
21863;BME280;11096;51.338;12.524;2022-08-25T03:30:41;100477.31;;;17.49;98.40
21863;BME280;11096;51.338;12.524;2022-08-25T03:33:07;100472.06;;;17.49;99.06
21863;BME280;11096;51.338;12.524;2022-08-25T03:35:33;100470.81;;;17.53;99.42
21863;BME280;11096;51.338;12.524;2022-08-25T03:37:59;100473.16;;;17.56;100.00
21863;BME280;11096;51.338;12.524;2022-08-25T03:40:25;100483.38;;;17.59;100.00
21863;BME280;11096;51.338;12.524;2022-08-25T03:42:50;100467.31;;;17.62;100.00
21863;BME280;11096;51.338;12.524;2022-08-25T03:45:17;100472.56;;;17.62;100.00
21863;BME280;11096;51.338;12.524;2022-08-25T03:47:46;100461.09;;;17.63;100.00
21863;BME280;11096;51.338;12.524;2022-08-25T03:50:13;100457.34;;;17.66;100.00
21863;BME280;11096;51.338;12.524;2022-08-25T03:52:38;100464.25;;;17.67;100.00
21863;BME280;11096;51.338;12.524;2022-08-25T03:55:06;100467.75;;;17.67;100.00
21863;BME280;11096;51.338;12.524;2022-08-25T03:57:32;100460.81;;;17.66;100.00
21863;BME280;11096;51.338;12.524;2022-08-25T03:59:57;100464.13;;;17.68;100.00
21863;BME280;11096;51.338;12.524;2022-08-25T04:02:23;100464.56;;;17.64;100.00
21863;BME280;11096;51.338;12.524;2022-08-25T04:04:48;100476.47;;;17.58;100.00
21863;BME280;11096;51.338;12.524;2022-08-25T04:07:14;100475.69;;;17.48;100.00
21863;BME280;11096;51.338;12.524;2022-08-25T04:09:40;100475.69;;;17.38;100.00
21863;BME280;11096;51.338;12.524;2022-08-25T04:12:05;100469.59;;;17.37;100.00
21863;BME280;11096;51.338;12.524;2022-08-25T04:14:31;100465.19;;;17.38;100.00
21863;BME280;11096;51.338;12.524;2022-08-25T04:16:56;100459.25;;;17.36;100.00
21863;BME280;11096;51.338;12.524;2022-08-25T04:19:21;100460.75;;;17.38;100.00
21863;BME280;11096;51.338;12.524;2022-08-25T04:21:47;100460.19;;;17.35;100.00
21863;BME280;11096;51.338;12.524;2022-08-25T04:24:13;100462.28;;;17.31;100.00
21863;BME280;11096;51.338;12.524;2022-08-25T04:26:42;100461.31;;;17.32;100.00
21863;BME280;11096;51.338;12.524;2022-08-25T04:29:09;100464.38;;;17.28;100.00
21863;BME280;11096;51.338;12.524;2022-08-25T04:31:39;100463.41;;;17.19;100.00
21863;BME280;11096;51.338;12.524;2022-08-25T04:34:05;100464.81;;;17.23;100.00
21863;BME280;11096;51.338;12.524;2022-08-25T04:36:31;100469.19;;;17.32;100.00
21863;BME280;11096;51.338;12.524;2022-08-25T04:38:57;100470.19;;;17.31;100.00
21863;BME280;11096;51.338;12.524;2022-08-25T04:41:23;100477.38;;;17.29;100.00
21863;BME280;11096;51.338;12.524;2022-08-25T04:43:50;100471.56;;;17.35;100.00
21863;BME280;11096;51.338;12.524;2022-08-25T04:46:21;100468.63;;;17.38;100.00
21863;BME280;11096;51.338;12.524;2022-08-25T04:48:48;100477.22;;;17.41;100.00
21863;BME280;11096;51.338;12.524;2022-08-25T04:51:21;100470.69;;;17.45;100.00
21863;BME280;11096;51.338;12.524;2022-08-25T04:53:48;100474.69;;;17.49;100.00
21863;BME280;11096;51.338;12.524;2022-08-25T04:56:16;100477.31;;;17.49;100.00
21863;BME280;11096;51.338;12.524;2022-08-25T04:58:42;100472.75;;;17.51;100.00
21863;BME280;11096;51.338;12.524;2022-08-25T05:01:12;100476.47;;;17.58;100.00
21863;BME280;11096;51.338;12.524;2022-08-25T05:03:40;100485.06;;;17.60;100.00
21863;BME280;11096;51.338;12.524;2022-08-25T05:06:06;100476.75;;;17.65;100.00
21863;BME280;11096;51.338;12.524;2022-08-25T05:08:32;100482.91;;;17.73;100.00
21863;BME280;11096;51.338;12.524;2022-08-25T05:10:57;100471.72;;;17.81;100.00
21863;BME280;11096;51.338;12.524;2022-08-25T05:13:26;100473.91;;;17.86;100.00
21863;BME280;11096;51.338;12.524;2022-08-25T05:15:55;100468.09;;;17.92;100.00
21863;BME280;11096;51.338;12.524;2022-08-25T05:18:23;100475.50;;;17.96;100.00
21863;BME280;11096;51.338;12.524;2022-08-25T05:20:50;100470.66;;;18.01;100.00
21863;BME280;11096;51.338;12.524;2022-08-25T05:23:18;100474.66;;;18.06;100.00
21863;BME280;11096;51.338;12.524;2022-08-25T05:25:43;100463.56;;;18.12;100.00
21863;BME280;11096;51.338;12.524;2022-08-25T05:28:09;100462.97;;;18.18;100.00
21863;BME280;11096;51.338;12.524;2022-08-25T05:30:39;100462.38;;;18.24;100.00
21863;BME280;11096;51.338;12.524;2022-08-25T05:33:05;100467.41;;;18.35;100.00
21863;BME280;11096;51.338;12.524;2022-08-25T05:35:31;100460.00;;;18.49;100.00
21863;BME280;11096;51.338;12.524;2022-08-25T05:37:56;100461.91;;;18.56;100.00
21863;BME280;11096;51.338;12.524;2022-08-25T05:40:22;100466.22;;;18.65;100.00
21863;BME280;11096;51.338;12.524;2022-08-25T05:42:48;100458.44;;;18.74;100.00
21863;BME280;11096;51.338;12.524;2022-08-25T05:45:14;100462.84;;;18.83;100.00
21863;BME280;11096;51.338;12.524;2022-08-25T05:47:39;100462.88;;;18.91;100.00
21863;BME280;11096;51.338;12.524;2022-08-25T05:50:06;100464.91;;;18.97;100.00
21863;BME280;11096;51.338;12.524;2022-08-25T05:52:31;100467.25;;;19.00;100.00
21863;BME280;11096;51.338;12.524;2022-08-25T05:54:57;100468.75;;;19.03;100.00
21863;BME280;11096;51.338;12.524;2022-08-25T05:57:22;100464.00;;;19.06;100.00
21863;BME280;11096;51.338;12.524;2022-08-25T05:59:48;100468.66;;;19.13;100.00
21863;BME280;11096;51.338;12.524;2022-08-25T06:02:13;100468.56;;;19.22;100.00
21863;BME280;11096;51.338;12.524;2022-08-25T06:04:57;100456.63;;;19.36;100.00
21863;BME280;11096;51.338;12.524;2022-08-25T06:07:23;100466.75;;;19.49;100.00
21863;BME280;11096;51.338;12.524;2022-08-25T06:09:48;100469.28;;;19.59;100.00
21863;BME280;11096;51.338;12.524;2022-08-25T06:12:14;100462.78;;;19.71;100.00
21863;BME280;11096;51.338;12.524;2022-08-25T06:14:40;100461.84;;;19.80;100.00
21863;BME280;11096;51.338;12.524;2022-08-25T06:17:06;100460.91;;;19.89;100.00
21863;BME280;11096;51.338;12.524;2022-08-25T06:19:32;100459.31;;;20.05;100.00
21863;BME280;11096;51.338;12.524;2022-08-25T06:21:57;100456.88;;;20.11;100.00
21863;BME280;11096;51.338;12.524;2022-08-25T06:24:24;100460.03;;;20.23;99.88
21863;BME280;11096;51.338;12.524;2022-08-25T06:26:50;100460.88;;;20.32;99.24
21863;BME280;11096;51.338;12.524;2022-08-25T06:29:16;100465.00;;;20.43;99.26
21863;BME280;11096;51.338;12.524;2022-08-25T06:31:42;100467.16;;;20.47;98.44
21863;BME280;11096;51.338;12.524;2022-08-25T06:34:08;100467.72;;;20.59;96.69
21863;BME280;11096;51.338;12.524;2022-08-25T06:36:34;100471.34;;;20.74;96.29
21863;BME280;11096;51.338;12.524;2022-08-25T06:38:59;100467.75;;;20.84;96.56
21863;BME280;11096;51.338;12.524;2022-08-25T06:41:25;100469.75;;;20.90;96.32
21863;BME280;11096;51.338;12.524;2022-08-25T06:43:50;100468.56;;;21.00;96.14
21863;BME280;11096;51.338;12.524;2022-08-25T06:46:26;100472.03;;;21.09;96.20
21863;BME280;11096;51.338;12.524;2022-08-25T06:48:53;100460.47;;;21.18;95.47
21863;BME280;11096;51.338;12.524;2022-08-25T06:51:19;100462.94;;;21.28;95.24
21863;BME280;11096;51.338;12.524;2022-08-25T06:53:47;100457.16;;;21.41;94.69
21863;BME280;11096;51.338;12.524;2022-08-25T06:56:14;100453.16;;;21.53;94.49
21863;BME280;11096;51.338;12.524;2022-08-25T06:58:40;100455.28;;;21.66;93.34
21863;BME280;11096;51.338;12.524;2022-08-25T07:01:17;100447.47;;;21.81;92.30
21863;BME280;11096;51.338;12.524;2022-08-25T07:03:44;100448.88;;;21.92;91.82
21863;BME280;11096;51.338;12.524;2022-08-25T07:06:09;100452.34;;;22.00;90.07
21863;BME280;11096;51.338;12.524;2022-08-25T07:08:35;100455.75;;;22.09;89.45
21863;BME280;11096;51.338;12.524;2022-08-25T07:11:08;100450.75;;;22.14;88.66
21863;BME280;11096;51.338;12.524;2022-08-25T07:13:35;100450.97;;;22.13;88.24
21863;BME280;11096;51.338;12.524;2022-08-25T07:16:02;100449.44;;;22.18;87.80
21863;BME280;11096;51.338;12.524;2022-08-25T07:18:28;100455.19;;;22.30;87.90
21863;BME280;11096;51.338;12.524;2022-08-25T07:20:54;100452.91;;;22.50;87.57
21863;BME280;11096;51.338;12.524;2022-08-25T07:23:21;100461.38;;;22.68;86.62
21863;BME280;11096;51.338;12.524;2022-08-25T07:25:47;100463.41;;;22.81;85.34
21863;BME280;11096;51.338;12.524;2022-08-25T07:28:14;100461.50;;;22.98;84.38
21863;BME280;11096;51.338;12.524;2022-08-25T07:30:39;100458.19;;;23.19;83.16
21863;BME280;11096;51.338;12.524;2022-08-25T07:33:05;100452.69;;;23.35;83.13
21863;BME280;11096;51.338;12.524;2022-08-25T07:35:30;100465.59;;;23.24;82.13
21863;BME280;11096;51.338;12.524;2022-08-25T07:37:57;100449.88;;;23.37;81.34
21863;BME280;11096;51.338;12.524;2022-08-25T07:40:31;100458.38;;;23.32;80.56
21863;BME280;11096;51.338;12.524;2022-08-25T07:42:59;100457.91;;;23.29;81.16
21863;BME280;11096;51.338;12.524;2022-08-25T07:45:27;100466.16;;;23.34;80.43
21863;BME280;11096;51.338;12.524;2022-08-25T07:48:03;100475.69;;;23.43;81.17
21863;BME280;11096;51.338;12.524;2022-08-25T07:50:30;100461.03;;;23.47;79.78
21863;BME280;11096;51.338;12.524;2022-08-25T07:52:56;100459.94;;;23.56;79.71
21863;BME280;11096;51.338;12.524;2022-08-25T07:55:24;100459.50;;;23.53;79.65
21863;BME280;11096;51.338;12.524;2022-08-25T07:57:50;100456.94;;;23.74;80.72
21863;BME280;11096;51.338;12.524;2022-08-25T08:00:16;100452.22;;;24.06;80.13
21863;BME280;11096;51.338;12.524;2022-08-25T08:02:42;100453.84;;;24.22;78.86
21863;BME280;11096;51.338;12.524;2022-08-25T08:05:09;100446.44;;;24.39;78.16
21863;BME280;11096;51.338;12.524;2022-08-25T08:07:35;100452.19;;;24.57;76.63
21863;BME280;11096;51.338;12.524;2022-08-25T08:10:01;100445.75;;;24.67;75.92
21863;BME280;11096;51.338;12.524;2022-08-25T08:12:28;100441.03;;;24.90;74.83
21863;BME280;11096;51.338;12.524;2022-08-25T08:14:53;100446.81;;;24.94;74.45
21863;BME280;11096;51.338;12.524;2022-08-25T08:17:19;100439.38;;;25.11;73.53
21863;BME280;11096;51.338;12.524;2022-08-25T08:19:45;100443.06;;;25.16;72.88
21863;BME280;11096;51.338;12.524;2022-08-25T08:22:12;100440.56;;;25.36;72.10
21863;BME280;11096;51.338;12.524;2022-08-25T08:24:40;100433.69;;;25.48;71.85
21863;BME280;11096;51.338;12.524;2022-08-25T08:27:07;100428.19;;;25.57;70.43
21863;BME280;11096;51.338;12.524;2022-08-25T08:29:34;100426.88;;;25.81;70.10
21863;BME280;11096;51.338;12.524;2022-08-25T08:32:00;100426.47;;;25.77;69.82
21863;BME280;11096;51.338;12.524;2022-08-25T08:34:25;100425.66;;;25.83;69.65
21863;BME280;11096;51.338;12.524;2022-08-25T08:36:51;100429.28;;;26.17;67.83
21863;BME280;11096;51.338;12.524;2022-08-25T08:39:17;100432.78;;;26.18;67.73
21863;BME280;11096;51.338;12.524;2022-08-25T08:41:45;100424.19;;;26.29;67.45
21863;BME280;11096;51.338;12.524;2022-08-25T08:47:22;100414.81;;;26.53;66.31
21863;BME280;11096;51.338;12.524;2022-08-25T08:50:04;100405.22;;;26.59;66.21
21863;BME280;11096;51.338;12.524;2022-08-25T08:52:42;100409.72;;;26.78;66.50
21863;BME280;11096;51.338;12.524;2022-08-25T08:57:47;100407.22;;;26.96;65.71
21863;BME280;11096;51.338;12.524;2022-08-25T09:00:14;100401.66;;;27.11;65.14
21863;BME280;11096;51.338;12.524;2022-08-25T09:02:48;100399.81;;;27.32;65.17
21863;BME280;11096;51.338;12.524;2022-08-25T09:05:16;100387.88;;;27.41;64.17
21863;BME280;11096;51.338;12.524;2022-08-25T09:10:13;100385.09;;;27.68;62.15
21863;BME280;11096;51.338;12.524;2022-08-25T09:12:45;100390.25;;;27.69;61.96
21863;BME280;11096;51.338;12.524;2022-08-25T09:15:27;100388.22;;;27.65;62.19
21863;BME280;11096;51.338;12.524;2022-08-25T09:23:40;100382.41;;;27.23;62.27
21863;BME280;11096;51.338;12.524;2022-08-25T09:26:31;100376.56;;;27.52;61.99
21863;BME280;11096;51.338;12.524;2022-08-25T09:29:09;100379.22;;;27.97;61.69
21863;BME280;11096;51.338;12.524;2022-08-25T09:31:39;100376.53;;;28.04;61.57
21863;BME280;11096;51.338;12.524;2022-08-25T09:34:28;100377.25;;;28.50;60.70
21863;BME280;11096;51.338;12.524;2022-08-25T09:36:55;100371.50;;;28.53;59.59
21863;BME280;11096;51.338;12.524;2022-08-25T09:39:21;100377.13;;;29.13;57.61
21863;BME280;11096;51.338;12.524;2022-08-25T09:41:52;100365.81;;;29.11;58.04
21863;BME280;11096;51.338;12.524;2022-08-25T09:44:30;100365.06;;;29.59;56.61
21863;BME280;11096;51.338;12.524;2022-08-25T09:47:05;100364.53;;;30.41;54.89
21863;BME280;11096;51.338;12.524;2022-08-25T09:49:39;100361.88;;;31.12;53.06
21863;BME280;11096;51.338;12.524;2022-08-25T09:54:43;100354.25;;;31.32;51.52
21863;BME280;11096;51.338;12.524;2022-08-25T09:57:35;100355.16;;;31.50;49.66
21863;BME280;11096;51.338;12.524;2022-08-25T10:02:44;100360.72;;;30.60;52.11
21863;BME280;11096;51.338;12.524;2022-08-25T10:05:25;100343.91;;;30.00;53.58
21863;BME280;11096;51.338;12.524;2022-08-25T10:07:56;100339.91;;;29.60;54.98
21863;BME280;11096;51.338;12.524;2022-08-25T10:10:31;100335.94;;;29.81;54.36
21863;BME280;11096;51.338;12.524;2022-08-25T10:12:57;100331.91;;;30.44;52.50
21863;BME280;11096;51.338;12.524;2022-08-25T10:15:35;100332.38;;;30.88;51.27
21863;BME280;11096;51.338;12.524;2022-08-25T10:18:22;100325.78;;;31.60;49.25
21863;BME280;11096;51.338;12.524;2022-08-25T10:21:13;100321.25;;;32.06;49.36
21863;BME280;11096;51.338;12.524;2022-08-25T10:23:51;100309.16;;;31.46;49.81
21863;BME280;11096;51.338;12.524;2022-08-25T10:26:27;100304.19;;;31.83;48.38
21863;BME280;11096;51.338;12.524;2022-08-25T10:29:05;100299.19;;;32.04;47.54
21863;BME280;11096;51.338;12.524;2022-08-25T10:31:55;100298.81;;;32.68;46.25
21863;BME280;11096;51.338;12.524;2022-08-25T10:39:39;100292.66;;;33.33;45.05
21863;BME280;11096;51.338;12.524;2022-08-25T10:42:25;100288.66;;;33.36;44.07
21863;BME280;11096;51.338;12.524;2022-08-25T10:45:12;100284.78;;;32.27;45.50
21863;BME280;11096;51.338;12.524;2022-08-25T10:56:34;100274.16;;;33.42;43.65
21863;BME280;11096;51.338;12.524;2022-08-25T10:59:09;100281.19;;;32.99;44.61
21863;BME280;11096;51.338;12.524;2022-08-25T11:04:33;100265.03;;;34.03;42.72
21863;BME280;11096;51.338;12.524;2022-08-25T11:07:10;100257.22;;;34.06;41.90
21863;BME280;11096;51.338;12.524;2022-08-25T11:09:39;100265.50;;;34.27;42.03
21863;BME280;11096;51.338;12.524;2022-08-25T11:12:10;100251.16;;;34.21;41.62
21863;BME280;11096;51.338;12.524;2022-08-25T11:14:56;100255.53;;;33.95;41.21
21863;BME280;11096;51.338;12.524;2022-08-25T11:17:25;100254.03;;;33.01;43.04
21863;BME280;11096;51.338;12.524;2022-08-25T11:19:55;100250.31;;;33.83;42.64
21863;BME280;11096;51.338;12.524;2022-08-25T11:22:33;100242.91;;;34.00;42.16
21863;BME280;11096;51.338;12.524;2022-08-25T11:25:20;100243.69;;;32.70;44.45
21863;BME280;11096;51.338;12.524;2022-08-25T11:28:07;100238.88;;;32.34;44.63
21863;BME280;11096;51.338;12.524;2022-08-25T11:30:35;100232.31;;;33.34;42.76
21863;BME280;11096;51.338;12.524;2022-08-25T11:33:03;100232.94;;;33.69;42.24
21863;BME280;11096;51.338;12.524;2022-08-25T11:35:36;100223.63;;;33.87;42.26
21863;BME280;11096;51.338;12.524;2022-08-25T11:40:47;100224.59;;;34.45;40.22
21863;BME280;11096;51.338;12.524;2022-08-25T11:51:45;100215.78;;;34.12;40.39
21863;BME280;11096;51.338;12.524;2022-08-25T11:59:59;100210.06;;;34.56;40.51
21863;BME280;11096;51.338;12.524;2022-08-25T12:02:44;100211.84;;;34.88;39.91
21863;BME280;11096;51.338;12.524;2022-08-25T12:11:04;100195.31;;;34.74;39.25
21863;BME280;11096;51.338;12.524;2022-08-25T12:24:46;100194.88;;;34.98;39.28
21863;BME280;11096;51.338;12.524;2022-08-25T12:30:13;100183.88;;;35.20;40.29
21863;BME280;11096;51.338;12.524;2022-08-25T12:32:57;100172.22;;;35.09;39.19
21863;BME280;11096;51.338;12.524;2022-08-25T12:35:30;100183.84;;;34.41;39.85
21863;BME280;11096;51.338;12.524;2022-08-25T12:37:59;100180.44;;;34.14;41.03
21863;BME280;11096;51.338;12.524;2022-08-25T12:40:52;100171.13;;;33.89;41.51
21863;BME280;11096;51.338;12.524;2022-08-25T12:45:46;100174.25;;;34.13;40.83
21863;BME280;11096;51.338;12.524;2022-08-25T12:50:58;100168.78;;;34.56;40.94
21863;BME280;11096;51.338;12.524;2022-08-25T12:53:41;100171.44;;;33.98;41.34
21863;BME280;11096;51.338;12.524;2022-08-25T12:58:46;100160.41;;;32.81;43.84
21863;BME280;11096;51.338;12.524;2022-08-25T13:07:05;100140.91;;;33.87;39.73
21863;BME280;11096;51.338;12.524;2022-08-25T13:15:12;100137.69;;;33.90;40.38
21863;BME280;11096;51.338;12.524;2022-08-25T13:17:38;100143.63;;;33.92;40.87
21863;BME280;11096;51.338;12.524;2022-08-25T13:20:23;100149.59;;;33.94;40.56
21863;BME280;11096;51.338;12.524;2022-08-25T13:22:51;100142.06;;;33.32;41.98
21863;BME280;11096;51.338;12.524;2022-08-25T13:25:20;100146.75;;;32.87;41.96
21863;BME280;11096;51.338;12.524;2022-08-25T13:27:54;100134.03;;;33.05;41.84
21863;BME280;11096;51.338;12.524;2022-08-25T13:30:26;100137.88;;;33.14;42.10
21863;BME280;11096;51.338;12.524;2022-08-25T13:32:52;100131.19;;;33.49;41.51
21863;BME280;11096;51.338;12.524;2022-08-25T13:35:25;100130.94;;;33.50;41.35
21863;BME280;11096;51.338;12.524;2022-08-25T13:37:51;100124.69;;;33.50;41.93
21863;BME280;11096;51.338;12.524;2022-08-25T13:40:28;100125.31;;;33.57;41.26
21863;BME280;11096;51.338;12.524;2022-08-25T13:42:59;100122.28;;;33.48;41.76
21863;BME280;11096;51.338;12.524;2022-08-25T13:45:28;100117.56;;;33.61;40.61
21863;BME280;11096;51.338;12.524;2022-08-25T13:47:55;100108.72;;;33.33;40.79
21863;BME280;11096;51.338;12.524;2022-08-25T13:53:07;100103.47;;;32.23;42.94
21863;BME280;11096;51.338;12.524;2022-08-25T13:55:48;100103.72;;;32.21;43.63
21863;BME280;11096;51.338;12.524;2022-08-25T13:58:16;100101.38;;;32.25;43.22
21863;BME280;11096;51.338;12.524;2022-08-25T14:03:34;100098.03;;;31.96;43.90
21863;BME280;11096;51.338;12.524;2022-08-25T14:06:09;100086.63;;;31.72;43.99
21863;BME280;11096;51.338;12.524;2022-08-25T14:09:04;100093.31;;;31.69;44.46
21863;BME280;11096;51.338;12.524;2022-08-25T14:11:54;100082.22;;;31.82;43.58
21863;BME280;11096;51.338;12.524;2022-08-25T14:16:58;100078.09;;;31.07;44.86
21863;BME280;11096;51.338;12.524;2022-08-25T14:19:24;100077.03;;;31.08;45.62
21863;BME280;11096;51.338;12.524;2022-08-25T14:21:51;100079.31;;;30.99;45.39
21863;BME280;11096;51.338;12.524;2022-08-25T14:24:19;100071.75;;;30.96;45.32
21863;BME280;11096;51.338;12.524;2022-08-25T14:26:46;100076.41;;;30.60;45.53
21863;BME280;11096;51.338;12.524;2022-08-25T14:29:12;100066.50;;;30.61;45.51
21863;BME280;11096;51.338;12.524;2022-08-25T14:31:40;100057.25;;;30.69;45.44
21863;BME280;11096;51.338;12.524;2022-08-25T14:34:16;100056.84;;;30.60;45.65